Clever, Missouri
Current Conditions -  °F | °C
As of 2:52 PM on Sunday 23 Nov 2014 (Local Time) from KSGF Reporting Station
Overcast Overcast  
Wind Chill: 15°   Ceiling: 3500
Heat Index: 15°   Visibility: 10mi
Dew Point: 12°   Wind: 8mph
Humidity: 83%   Direction: 150°SSE
Pressure: 29.31"   Gusts: NA
Location:  37.03°N, 93.47°W
Report Text: KSGF 232052Z 15007KT 10SM FEW011 OVC035 15/12 A2931 RMK AO2 SLP921 T01500122 56034
Loading
Personal Weather Stations






























Interactive Weather Map New forecast layout! Learn more

10-Day Weather Forecast

Advertisements
Track Severe Weather on mobile